createdAt,value
2019-03-26T00:01:13.594Z,7.03
2019-03-26T00:03:44.740Z,7.22
2019-03-26T00:06:15.702Z,7.12
2019-03-26T00:08:46.695Z,6.62
2019-03-26T00:11:17.754Z,7.70
2019-03-26T00:13:48.997Z,7.15
2019-03-26T00:16:19.941Z,7.53
2019-03-26T00:18:50.939Z,7.03
2019-03-26T00:21:22.006Z,6.78
2019-03-26T00:23:53.093Z,7.72
2019-03-26T00:26:24.190Z,7.95
2019-03-26T00:28:55.264Z,7.80
2019-03-26T00:31:26.383Z,7.78
2019-03-26T00:33:57.398Z,7.85
2019-03-26T00:36:28.387Z,7.30
2019-03-26T00:38:59.734Z,7.37
2019-03-26T00:41:30.879Z,8.25
2019-03-26T00:44:01.825Z,7.75
2019-03-26T00:46:32.728Z,8.45
2019-03-26T00:49:03.671Z,7.50
2019-03-26T00:51:34.547Z,6.87
2019-03-26T00:54:05.676Z,8.28
2019-03-26T00:56:36.659Z,7.85
2019-03-26T00:59:07.793Z,7.83
2019-03-26T01:01:38.694Z,8.18
2019-03-26T01:04:09.646Z,7.83
2019-03-26T01:06:40.683Z,8.40
2019-03-26T01:09:11.704Z,7.35
2019-03-26T01:11:42.782Z,8.18
2019-03-26T01:14:14.018Z,8.28
2019-03-26T01:16:45.019Z,9.23
2019-03-26T01:19:16.199Z,8.28
2019-03-26T01:21:47.341Z,9.18
2019-03-26T01:24:18.539Z,8.63
2019-03-26T01:26:49.524Z,9.05
2019-03-26T01:29:23.099Z,8.50
2019-03-26T01:31:54.180Z,9.68
2019-03-26T01:34:25.261Z,8.85
2019-03-26T01:36:56.202Z,9.78
2019-03-26T01:39:27.311Z,9.28
2019-03-26T01:41:58.606Z,8.58
2019-03-26T01:44:29.679Z,8.65
2019-03-26T01:47:00.771Z,8.65
2019-03-26T01:49:31.778Z,8.93
2019-03-26T01:52:02.859Z,8.93
2019-03-26T01:54:33.804Z,9.48
2019-03-26T01:57:04.774Z,8.68
2019-03-26T01:59:35.724Z,10.00
2019-03-26T02:02:06.916Z,8.90
2019-03-26T02:04:38.117Z,9.30
2019-03-26T02:07:09.289Z,9.40
2019-03-26T02:09:40.222Z,9.10
2019-03-26T02:12:11.464Z,9.15
2019-03-26T02:14:42.455Z,9.85
2019-03-26T02:17:13.422Z,9.75
2019-03-26T02:19:44.435Z,9.30
2019-03-26T02:22:15.501Z,9.63
2019-03-26T02:24:46.580Z,9.78
2019-03-26T02:27:17.681Z,9.80
2019-03-26T02:29:48.902Z,10.08
2019-03-26T02:32:20.039Z,9.15
2019-03-26T02:34:51.105Z,9.80
2019-03-26T02:37:22.201Z,9.50
2019-03-26T02:39:53.475Z,8.68
2019-03-26T02:42:24.582Z,10.40
2019-03-26T02:44:55.920Z,9.93
2019-03-26T02:47:26.959Z,9.68
2019-03-26T02:49:57.986Z,9.03
2019-03-26T02:52:28.945Z,9.70
2019-03-26T02:55:01.008Z,9.25
2019-03-26T02:57:32.167Z,9.70
2019-03-26T03:00:03.116Z,9.85
2019-03-26T03:02:34.469Z,9.65
2019-03-26T03:05:06.834Z,8.78
2019-03-26T03:07:37.785Z,9.45
2019-03-26T03:10:08.788Z,8.68
2019-03-26T03:12:39.936Z,10.05
2019-03-26T03:15:11.075Z,9.95
2019-03-26T03:17:42.224Z,9.58
2019-03-26T03:20:13.333Z,9.98
2019-03-26T03:22:44.457Z,9.98
2019-03-26T03:25:15.757Z,9.23
2019-03-26T03:27:46.654Z,9.58
2019-03-26T03:30:18.425Z,10.20
2019-03-26T03:32:49.499Z,8.93
2019-03-26T03:35:20.543Z,10.60
2019-03-26T03:37:51.702Z,10.43
2019-03-26T03:40:22.773Z,9.35
2019-03-26T03:42:53.849Z,10.00
2019-03-26T03:45:28.881Z,9.38
2019-03-26T03:47:59.973Z,9.63
2019-03-26T03:50:31.071Z,10.50
2019-03-26T03:53:02.415Z,9.95
2019-03-26T03:55:33.467Z,9.98
2019-03-26T03:58:04.613Z,10.05
2019-03-26T04:00:38.120Z,10.50
2019-03-26T04:03:09.446Z,9.40
2019-03-26T04:05:40.574Z,10.20
2019-03-26T04:08:11.745Z,9.90
2019-03-26T04:10:42.782Z,10.63
2019-03-26T04:13:13.944Z,12.47
2019-03-26T04:15:45.111Z,11.90
2019-03-26T04:18:16.461Z,14.18
2019-03-26T04:20:47.635Z,11.18
2019-03-26T04:23:18.782Z,12.40
2019-03-26T04:25:49.845Z,12.10
2019-03-26T04:28:21.015Z,12.15
2019-03-26T04:30:52.400Z,13.72
2019-03-26T04:33:23.617Z,12.70
2019-03-26T04:35:54.820Z,10.53
2019-03-26T04:38:26.013Z,11.40
2019-03-26T04:40:57.205Z,11.53
2019-03-26T04:43:28.373Z,12.47
2019-03-26T04:45:59.447Z,12.30
2019-03-26T04:48:30.601Z,11.50
2019-03-26T04:51:01.807Z,11.18
2019-03-26T04:53:34.287Z,10.93
2019-03-26T04:56:05.836Z,11.03
2019-03-26T04:58:37.133Z,10.50
2019-03-26T05:01:08.291Z,10.53
2019-03-26T05:03:39.527Z,11.18
2019-03-26T05:06:10.626Z,11.20
2019-03-26T05:08:41.822Z,11.12
2019-03-26T05:11:13.158Z,12.13
2019-03-26T05:13:44.586Z,10.82
2019-03-26T05:16:15.633Z,11.70
2019-03-26T05:18:47.829Z,11.50
2019-03-26T05:21:19.265Z,12.95
2019-03-26T05:23:51.946Z,13.80
2019-03-26T05:26:23.348Z,13.20
2019-03-26T05:28:54.737Z,13.28
2019-03-26T05:31:26.290Z,14.70
2019-03-26T05:34:00.570Z,13.83
2019-03-26T05:36:35.584Z,13.30
2019-03-26T05:39:09.980Z,12.68
2019-03-26T05:41:41.210Z,13.95
2019-03-26T05:44:12.723Z,13.98
2019-03-26T05:46:43.887Z,15.88
2019-03-26T05:49:15.160Z,14.33
2019-03-26T05:51:51.361Z,14.95
2019-03-26T05:56:52.983Z,14.55
2019-03-26T05:59:24.144Z,16.17
2019-03-26T06:01:55.464Z,15.85
2019-03-26T06:04:26.821Z,15.55
2019-03-26T06:07:04.644Z,17.35
2019-03-26T06:09:30.985Z,17.87
2019-03-26T06:12:02.184Z,18.07
2019-03-26T06:14:33.501Z,18.55
2019-03-26T06:17:04.749Z,19.27
2019-03-26T06:19:35.831Z,20.20
2019-03-26T06:22:07.143Z,19.98
2019-03-26T06:24:38.319Z,20.50
2019-03-26T06:27:09.534Z,19.37
2019-03-26T06:29:40.820Z,18.42
2019-03-26T06:32:12.334Z,19.80
2019-03-26T06:34:43.577Z,19.35
2019-03-26T06:37:17.977Z,19.95
2019-03-26T06:39:47.680Z,21.33
2019-03-26T06:42:18.798Z,20.10
2019-03-26T06:44:50.064Z,19.82
2019-03-26T06:47:21.307Z,23.00
2019-03-26T06:49:52.505Z,21.55
2019-03-26T06:52:23.776Z,26.65
2019-03-26T06:54:55.106Z,25.10
2019-03-26T06:57:35.444Z,25.30
2019-03-26T06:59:59.715Z,25.35
2019-03-26T07:02:30.975Z,24.07
2019-03-26T07:05:02.237Z,24.18
2019-03-26T07:07:33.445Z,26.50
2019-03-26T07:10:07.251Z,26.93
2019-03-26T07:12:38.551Z,24.27
2019-03-26T07:15:10.032Z,26.77
2019-03-26T07:17:41.239Z,24.27
2019-03-26T07:20:12.498Z,31.55
2019-03-26T07:22:43.730Z,32.93
2019-03-26T07:25:16.584Z,32.30
2019-03-26T07:27:47.888Z,33.13
2019-03-26T07:30:39.311Z,32.60
2019-03-26T07:33:10.754Z,34.58
2019-03-26T07:35:41.877Z,37.50
2019-03-26T07:38:15.226Z,34.05
2019-03-26T07:40:46.496Z,35.63
2019-03-26T07:43:17.652Z,35.85
2019-03-26T07:45:48.772Z,32.17
2019-03-26T07:48:19.929Z,33.42
2019-03-26T07:50:51.159Z,30.68
2019-03-26T07:53:24.296Z,28.92
2019-03-26T07:55:55.674Z,31.87
2019-03-26T07:58:33.226Z,26.00
2019-03-26T08:01:04.261Z,29.70
2019-03-26T08:03:35.590Z,37.88
2019-03-26T08:06:06.811Z,32.53
2019-03-26T08:08:40.546Z,32.35
2019-03-26T08:11:10.914Z,29.67
2019-03-26T08:13:42.355Z,31.97
2019-03-26T08:16:13.496Z,37.58
2019-03-26T08:18:44.877Z,35.95
2019-03-26T08:21:16.187Z,37.30
2019-03-26T08:23:47.416Z,39.63
2019-03-26T08:26:18.546Z,40.30
2019-03-26T08:28:49.632Z,40.98
2019-03-26T08:31:21.120Z,39.80
2019-03-26T08:33:52.348Z,42.73
2019-03-26T08:36:23.540Z,43.65
2019-03-26T08:38:54.816Z,45.38
2019-03-26T08:41:25.884Z,45.85
2019-03-26T08:43:57.275Z,48.55
2019-03-26T08:46:28.551Z,45.45
2019-03-26T08:48:59.714Z,44.50
2019-03-26T08:51:30.883Z,48.78
2019-03-26T08:54:02.157Z,45.28
2019-03-26T08:56:33.326Z,46.63
2019-03-26T08:59:04.529Z,50.03
2019-03-26T09:01:36.610Z,49.77
2019-03-26T09:04:08.594Z,49.48
2019-03-26T09:06:39.774Z,49.73
2019-03-26T09:09:11.094Z,49.50
2019-03-26T09:11:42.342Z,50.03
2019-03-26T09:14:13.605Z,50.00
2019-03-26T09:16:44.741Z,48.23
2019-03-26T09:19:16.193Z,51.40
2019-03-26T09:21:47.251Z,50.12
2019-03-26T09:24:18.435Z,49.45
2019-03-26T09:26:49.705Z,48.83
2019-03-26T09:29:20.832Z,47.75
2019-03-26T09:31:51.951Z,49.42
2019-03-26T09:34:22.982Z,49.58
2019-03-26T09:36:54.051Z,47.17
2019-03-26T09:39:25.229Z,48.45
2019-03-26T09:41:56.353Z,48.50
2019-03-26T09:44:28.788Z,47.53
2019-03-26T09:47:01.032Z,46.00
2019-03-26T09:49:32.411Z,48.38
2019-03-26T09:52:03.749Z,45.38
2019-03-26T09:54:34.879Z,47.55
2019-03-26T09:57:05.933Z,46.80
2019-03-26T09:59:37.065Z,48.83
2019-03-26T10:02:08.299Z,46.63
2019-03-26T10:04:40.371Z,49.53
2019-03-26T10:07:20.970Z,49.67
2019-03-26T10:09:44.351Z,50.55
2019-03-26T10:12:15.439Z,50.28
2019-03-26T10:14:46.706Z,51.90
2019-03-26T10:17:17.797Z,50.45
2019-03-26T10:19:49.069Z,50.63
2019-03-26T10:22:20.303Z,53.70
2019-03-26T10:24:51.402Z,53.80
2019-03-26T10:27:22.484Z,54.27
2019-03-26T10:29:54.610Z,55.33
2019-03-26T10:32:25.679Z,56.30
2019-03-26T10:34:56.834Z,56.80
2019-03-26T10:37:27.830Z,56.98
2019-03-26T10:39:59.244Z,56.13
2019-03-26T10:42:30.462Z,57.17
2019-03-26T10:45:01.545Z,57.43
2019-03-26T10:47:32.826Z,56.00
2019-03-26T10:50:06.717Z,56.40
2019-03-26T10:52:37.797Z,53.55
2019-03-26T10:55:09.015Z,58.90
2019-03-26T10:57:40.306Z,56.58
2019-03-26T11:00:11.435Z,58.38
2019-03-26T11:02:42.615Z,58.33
2019-03-26T11:05:13.842Z,55.65
2019-03-26T11:07:45.112Z,56.33
2019-03-26T11:10:16.261Z,54.20
2019-03-26T11:12:47.356Z,56.25
2019-03-26T11:15:18.626Z,55.05
2019-03-26T11:17:49.782Z,58.08
2019-03-26T11:20:20.965Z,56.83
2019-03-26T11:22:52.089Z,55.55
2019-03-26T11:25:23.179Z,56.02
2019-03-26T11:27:54.377Z,54.25
2019-03-26T11:30:25.830Z,54.27
2019-03-26T11:32:56.990Z,51.40
2019-03-26T11:35:28.146Z,53.68
2019-03-26T11:38:00.770Z,50.92
2019-03-26T11:40:31.838Z,50.00
2019-03-26T11:43:03.184Z,49.83
2019-03-26T11:45:34.372Z,50.60
2019-03-26T11:48:05.700Z,50.03
2019-03-26T11:50:36.948Z,55.73
2019-03-26T11:53:08.091Z,50.08
2019-03-26T11:55:39.328Z,47.53
2019-03-26T11:58:10.788Z,49.77
2019-03-26T12:00:42.611Z,51.33
2019-03-26T12:03:13.702Z,54.08
2019-03-26T12:05:44.873Z,54.08
2019-03-26T12:08:16.267Z,52.40
2019-03-26T12:10:47.307Z,56.08
2019-03-26T12:13:18.427Z,57.90
2019-03-26T12:15:49.810Z,54.25
2019-03-26T12:18:21.228Z,54.23
2019-03-26T12:20:52.500Z,54.08
2019-03-26T12:23:23.596Z,56.88
2019-03-26T12:25:54.859Z,54.95
2019-03-26T12:28:25.880Z,57.03
2019-03-26T12:30:56.950Z,56.98
2019-03-26T12:33:28.204Z,57.15
2019-03-26T12:35:59.420Z,57.23
2019-03-26T12:38:31.672Z,55.88
2019-03-26T12:41:02.808Z,54.93
2019-03-26T12:43:34.087Z,52.53
2019-03-26T12:46:05.321Z,53.95
2019-03-26T12:48:36.468Z,43.08
2019-03-26T12:51:07.515Z,44.85
2019-03-26T12:53:38.579Z,39.63
2019-03-26T12:56:09.600Z,39.50
2019-03-26T12:58:40.819Z,48.73
2019-03-26T13:01:12.037Z,41.33
2019-03-26T13:03:44.445Z,36.65
2019-03-26T13:06:15.672Z,37.23
2019-03-26T13:08:46.736Z,34.90
2019-03-26T13:11:17.884Z,33.92
2019-03-26T13:13:48.967Z,34.00
2019-03-26T13:16:20.205Z,32.53
2019-03-26T13:18:51.403Z,36.75
2019-03-26T13:21:23.539Z,26.27
2019-03-26T13:23:55.937Z,25.48
2019-03-26T13:26:27.106Z,25.08
2019-03-26T13:28:58.336Z,23.25
2019-03-26T13:31:29.699Z,24.18
2019-03-26T13:34:00.994Z,23.85
2019-03-26T13:36:32.433Z,22.73
2019-03-26T13:39:04.138Z,22.90
2019-03-26T13:41:35.427Z,20.60
2019-03-26T13:44:06.636Z,23.30
2019-03-26T13:46:37.909Z,21.12
2019-03-26T13:49:09.061Z,21.07
2019-03-26T13:51:40.202Z,20.40
2019-03-26T13:54:11.513Z,20.77
2019-03-26T13:56:42.635Z,21.35
2019-03-26T13:59:13.805Z,20.75
2019-03-26T14:01:44.844Z,21.30
2019-03-26T14:04:15.975Z,20.95
2019-03-26T14:06:48.172Z,20.72
2019-03-26T14:09:19.495Z,20.10
2019-03-26T14:11:50.610Z,19.98
2019-03-26T14:14:21.912Z,20.27
2019-03-26T14:16:53.245Z,19.20
2019-03-26T14:19:24.488Z,19.75
2019-03-26T14:21:55.700Z,22.00
2019-03-26T14:24:26.812Z,19.65
2019-03-26T14:26:57.995Z,21.23
2019-03-26T14:29:29.198Z,20.12
2019-03-26T14:32:00.319Z,19.77
2019-03-26T14:34:31.346Z,21.30
2019-03-26T14:37:02.642Z,22.17
2019-03-26T14:39:33.976Z,19.98
2019-03-26T14:42:05.126Z,20.43
2019-03-26T14:44:36.201Z,21.25
2019-03-26T14:47:07.406Z,21.17
2019-03-26T14:49:38.673Z,21.15
2019-03-26T14:52:09.867Z,20.52
2019-03-26T14:54:41.011Z,22.98
2019-03-26T14:57:12.232Z,21.82
2019-03-26T14:59:43.626Z,26.02
2019-03-26T15:02:14.927Z,27.15
2019-03-26T15:04:46.016Z,28.00
2019-03-26T15:07:17.053Z,26.20
2019-03-26T15:09:48.169Z,27.22
2019-03-26T15:12:19.286Z,29.07
2019-03-26T15:14:50.608Z,24.27
2019-03-26T15:17:21.836Z,22.50
2019-03-26T15:19:55.058Z,24.10
2019-03-26T15:22:26.080Z,28.15
2019-03-26T15:24:59.501Z,27.65
2019-03-26T15:27:30.821Z,24.55
2019-03-26T15:30:01.998Z,26.95
2019-03-26T15:32:33.263Z,30.05
2019-03-26T15:35:05.786Z,27.77
2019-03-26T15:37:38.195Z,27.85
2019-03-26T15:40:09.195Z,27.70
2019-03-26T15:42:40.607Z,32.42
2019-03-26T15:45:11.921Z,31.33
2019-03-26T15:47:43.047Z,28.05
2019-03-26T15:50:17.399Z,27.15
2019-03-26T15:52:48.645Z,26.00
2019-03-26T15:55:19.830Z,24.77
2019-03-26T15:57:51.128Z,23.57
2019-03-26T16:00:26.246Z,22.82
2019-03-26T16:02:57.980Z,24.15
2019-03-26T16:05:29.153Z,29.23
2019-03-26T16:08:00.692Z,27.13
2019-03-26T16:10:31.931Z,23.55
2019-03-26T16:13:03.584Z,26.00
2019-03-26T16:15:44.107Z,25.97
2019-03-26T16:18:08.175Z,25.92
2019-03-26T16:20:39.614Z,27.17
2019-03-26T16:23:10.675Z,24.92
2019-03-26T16:25:41.793Z,27.50
2019-03-26T16:28:12.962Z,27.75
2019-03-26T16:30:44.022Z,29.35
2019-03-26T16:33:15.272Z,30.97
2019-03-26T16:35:46.539Z,30.68
2019-03-26T16:38:21.529Z,32.05
2019-03-26T16:40:56.005Z,29.10
2019-03-26T16:43:27.500Z,28.03
2019-03-26T16:45:58.993Z,27.15
2019-03-26T16:48:31.209Z,27.75
2019-03-26T16:51:02.346Z,28.98
2019-03-26T16:53:39.571Z,29.63
2019-03-26T16:56:12.088Z,31.73
2019-03-26T16:58:45.585Z,29.60
2019-03-26T17:01:16.737Z,28.73
2019-03-26T17:03:49.508Z,28.85
2019-03-26T17:06:21.955Z,31.82
2019-03-26T17:08:53.158Z,31.52
2019-03-26T17:11:24.468Z,32.17
2019-03-26T17:13:55.662Z,33.80
2019-03-26T17:16:27.088Z,34.08
2019-03-26T17:18:58.553Z,33.90
2019-03-26T17:21:29.746Z,34.65
2019-03-26T17:24:00.958Z,35.25
2019-03-26T17:26:32.173Z,35.28
2019-03-26T17:29:03.314Z,36.93
2019-03-26T17:31:34.497Z,36.83
2019-03-26T17:34:05.693Z,36.33
2019-03-26T17:36:37.566Z,38.00
2019-03-26T17:39:09.671Z,38.08
2019-03-26T17:41:40.897Z,34.95
2019-03-26T17:44:16.935Z,33.92
2019-03-26T17:46:48.947Z,35.33
2019-03-26T17:49:20.227Z,33.63
2019-03-26T17:51:51.400Z,34.30
2019-03-26T17:54:22.597Z,34.83
2019-03-26T17:56:53.920Z,36.10
2019-03-26T17:59:25.480Z,36.35
2019-03-26T18:01:56.821Z,36.53
2019-03-26T18:04:28.195Z,36.30
2019-03-26T18:06:59.575Z,34.50
2019-03-26T18:09:30.924Z,34.20
2019-03-26T18:12:03.073Z,34.75
2019-03-26T18:14:34.380Z,35.00
2019-03-26T18:17:05.580Z,35.52
2019-03-26T18:19:37.099Z,36.40
2019-03-26T18:22:08.277Z,35.13
2019-03-26T18:24:39.534Z,36.73
2019-03-26T18:27:10.944Z,36.13
2019-03-26T18:29:42.445Z,35.03
2019-03-26T18:32:15.264Z,35.28
2019-03-26T18:34:46.665Z,32.53
2019-03-26T18:37:18.851Z,34.58
2019-03-26T18:39:50.665Z,34.23
2019-03-26T18:42:23.418Z,34.50
2019-03-26T18:44:54.687Z,36.20
2019-03-26T18:47:25.878Z,35.68
2019-03-26T18:49:57.273Z,35.88
2019-03-26T18:52:29.109Z,33.95
2019-03-26T18:55:00.430Z,29.63
2019-03-26T18:57:31.906Z,31.10
2019-03-26T19:00:05.093Z,30.10
2019-03-26T19:02:36.673Z,27.37
2019-03-26T19:05:09.212Z,27.82
2019-03-26T19:07:40.421Z,28.77
2019-03-26T19:10:25.877Z,28.47
2019-03-26T19:12:58.773Z,27.95
2019-03-26T19:15:30.131Z,28.40
2019-03-26T19:18:01.423Z,30.80
2019-03-26T19:20:32.871Z,27.15
2019-03-26T19:23:04.248Z,25.88
2019-03-26T19:25:35.500Z,27.13
2019-03-26T19:28:06.768Z,27.07
2019-03-26T19:30:38.061Z,29.02
2019-03-26T19:33:09.594Z,27.40
2019-03-26T19:35:41.413Z,28.85
2019-03-26T19:38:12.639Z,29.45
2019-03-26T19:40:44.005Z,29.72
2019-03-26T19:43:15.259Z,32.10
2019-03-26T19:45:47.032Z,30.70
2019-03-26T19:48:18.560Z,29.82
2019-03-26T19:50:50.016Z,30.37
2019-03-26T19:53:22.649Z,28.27
2019-03-26T19:55:53.938Z,28.92
2019-03-26T19:58:27.202Z,26.25
2019-03-26T20:00:58.418Z,26.95
2019-03-26T20:03:29.696Z,27.30
2019-03-26T20:06:12.782Z,26.65
2019-03-26T20:08:37.471Z,27.58
2019-03-26T20:11:09.064Z,27.40
2019-03-26T20:13:40.765Z,26.68
2019-03-26T20:16:12.089Z,27.07
2019-03-26T20:18:43.526Z,28.12
2019-03-26T20:21:27.053Z,26.85
2019-03-26T20:23:58.224Z,25.85
2019-03-26T20:26:29.466Z,26.80
2019-03-26T20:29:00.892Z,25.48
2019-03-26T20:31:32.316Z,25.88
2019-03-26T20:34:03.587Z,27.00
2019-03-26T20:36:36.243Z,27.82
2019-03-26T20:39:08.507Z,29.05
2019-03-26T20:41:40.083Z,28.87
2019-03-26T20:44:12.697Z,28.75
2019-03-26T20:46:43.862Z,27.52
2019-03-26T20:49:15.143Z,27.77
2019-03-26T20:51:46.460Z,27.07
2019-03-26T20:54:17.612Z,28.20
2019-03-26T20:56:48.994Z,27.45
2019-03-26T20:59:20.235Z,26.65
2019-03-26T21:01:51.627Z,26.52
2019-03-26T21:04:22.785Z,29.27
2019-03-26T21:06:54.029Z,29.75
2019-03-26T21:09:25.148Z,30.80
2019-03-26T21:11:56.327Z,33.23
2019-03-26T21:14:27.714Z,35.95
2019-03-26T21:16:58.996Z,40.98
2019-03-26T21:19:31.269Z,40.05
2019-03-26T21:22:02.390Z,38.33
2019-03-26T21:24:33.960Z,39.98
2019-03-26T21:27:05.186Z,38.85
2019-03-26T21:29:36.259Z,41.53
2019-03-26T21:32:07.483Z,38.75
2019-03-26T21:34:38.651Z,41.10
2019-03-26T21:37:10.944Z,42.50
2019-03-26T21:39:42.015Z,39.48
2019-03-26T21:42:13.310Z,43.15
2019-03-26T21:44:44.696Z,42.70
2019-03-26T21:47:15.736Z,42.65
2019-03-26T21:49:48.516Z,36.23
2019-03-26T21:52:19.992Z,40.88
2019-03-26T21:54:51.142Z,40.98
2019-03-26T21:57:22.327Z,38.90
2019-03-26T21:59:53.426Z,39.25
2019-03-26T22:02:24.545Z,37.15
2019-03-26T22:04:55.842Z,37.63
2019-03-26T22:07:27.075Z,36.83
2019-03-26T22:09:58.094Z,44.98
2019-03-26T22:12:29.425Z,37.42
2019-03-26T22:15:00.589Z,36.90
2019-03-26T22:17:31.863Z,35.70
2019-03-26T22:20:02.936Z,35.60
2019-03-26T22:22:34.116Z,35.10
2019-03-26T22:25:06.867Z,36.85
2019-03-26T22:27:38.140Z,33.60
2019-03-26T22:30:10.057Z,33.13
2019-03-26T22:32:41.263Z,31.77
2019-03-26T22:35:12.242Z,32.55
2019-03-26T22:37:43.352Z,32.28
2019-03-26T22:40:14.479Z,34.40
2019-03-26T22:42:45.799Z,34.73
2019-03-26T22:45:16.865Z,32.23
2019-03-26T22:47:48.030Z,34.92
2019-03-26T22:50:19.162Z,34.48
2019-03-26T22:52:50.282Z,37.17
2019-03-26T22:55:21.605Z,37.15
2019-03-26T22:57:52.663Z,38.50
2019-03-26T23:00:23.732Z,38.73
2019-03-26T23:02:56.405Z,36.60
2019-03-26T23:05:27.564Z,34.60
2019-03-26T23:07:58.695Z,31.30
2019-03-26T23:10:29.757Z,31.15
2019-03-26T23:13:00.853Z,29.72
2019-03-26T23:15:32.072Z,32.25
2019-03-26T23:18:03.246Z,31.57
2019-03-26T23:20:34.376Z,29.35
2019-03-26T23:23:05.497Z,28.67
2019-03-26T23:25:36.513Z,26.65
2019-03-26T23:28:07.734Z,29.52
2019-03-26T23:30:38.880Z,29.05
2019-03-26T23:33:10.116Z,29.07
2019-03-26T23:35:41.262Z,34.30
2019-03-26T23:38:12.372Z,35.50
2019-03-26T23:40:44.692Z,40.73
2019-03-26T23:43:16.095Z,35.83
2019-03-26T23:45:47.191Z,32.33
2019-03-26T23:48:18.324Z,33.15
2019-03-26T23:50:49.389Z,31.40
2019-03-26T23:53:21.519Z,31.75
2019-03-26T23:55:52.907Z,34.65
2019-03-26T23:58:24.131Z,40.98
